Time;durP1;ratioP1;P1;durP2;ratioP2;P2;SDS_P1;SDS_P2;PMS_P1;PMS_P2;Temp;Humidity;BMP_temperature;BMP_pressure;BME280_temperature;BME280_humidity;BME280_pressure;Samples;Min_cycle;Max_cycle;Signal;HPM_P1;HPM_P2
2022/02/18 00:00:58;;;;;;;1.02;0.80;;;;;;;6.40;70.60;99652.25;1685122;85;26125;-58
2022/02/18 00:03:28;;;;;;;0.70;0.60;;;;;;;6.42;70.58;99660.97;1692066;84;25802;-58
2022/02/18 00:05:55;;;;;;;0.70;0.62;;;;;;;6.40;70.87;99683.47;1698416;84;25832;-58
2022/02/18 00:08:22;;;;;;;2.95;0.70;;;;;;;6.35;70.88;99691.89;1698283;84;25516;-58
2022/02/18 00:10:49;;;;;;;1.22;0.70;;;;;;;6.31;71.13;99689.63;1698207;84;29624;-57
2022/02/18 00:13:19;;;;;;;1.25;0.70;;;;;;;6.28;71.33;99690.72;1698325;84;25697;-59
2022/02/18 00:15:46;;;;;;;1.47;0.50;;;;;;;6.23;72.03;99689.78;1697893;84;25809;-59
2022/02/18 00:18:12;;;;;;;0.35;0.35;;;;;;;6.17;71.97;99694.34;1690612;84;25869;-58
2022/02/18 00:20:39;;;;;;;1.37;0.62;;;;;;;6.10;72.14;99676.66;1690562;84;25874;-58
2022/02/18 00:23:08;;;;;;;1.40;1.10;;;;;;;6.07;71.82;99668.95;1690343;84;27484;-58
2022/02/18 00:25:38;;;;;;;0.80;0.30;;;;;;;6.06;71.59;99663.72;1697036;83;25617;-58
2022/02/18 00:28:06;;;;;;;0.72;0.70;;;;;;;6.04;71.40;99663.86;1699694;83;25821;-57
2022/02/18 00:30:34;;;;;;;0.62;0.50;;;;;;;6.02;71.41;99651.63;1698743;84;25876;-57
2022/02/18 00:33:01;;;;;;;0.65;0.50;;;;;;;6.04;71.21;99649.17;1698544;84;25816;-58
2022/02/18 00:35:29;;;;;;;2.95;0.55;;;;;;;6.06;71.09;99649.03;1698348;84;27506;-59
2022/02/18 00:37:57;;;;;;;2.12;0.55;;;;;;;6.12;70.90;99651.19;1698701;84;25760;-58
2022/02/18 00:40:25;;;;;;;2.95;0.68;;;;;;;6.13;70.96;99655.55;1698345;84;25773;-58
2022/02/18 00:42:54;;;;;;;0.98;0.42;;;;;;;6.19;70.98;99649.66;1698130;84;26185;-58
2022/02/18 00:45:21;;;;;;;2.77;0.85;;;;;;;6.29;70.97;99651.02;1695826;84;25798;-58
2022/02/18 00:47:49;;;;;;;1.47;0.70;;;;;;;6.37;70.79;99653.84;1708015;84;27468;-59
2022/02/18 00:50:19;;;;;;;1.32;0.78;;;;;;;6.46;70.69;99658.87;1707829;84;25796;-58
2022/02/18 00:52:45;;;;;;;0.93;0.50;;;;;;;6.55;70.75;99670.08;1708278;84;25748;-58
2022/02/18 00:55:15;;;;;;;1.20;0.90;;;;;;;6.69;70.81;99671.51;1707956;84;25830;-58
2022/02/18 00:57:42;;;;;;;5.28;0.98;;;;;;;6.72;70.43;99669.88;1700103;84;25816;-58
2022/02/18 01:00:13;;;;;;;1.30;0.75;;;;;;;6.66;70.12;99673.61;1691509;84;27505;-58
2022/02/18 01:02:40;;;;;;;1.47;0.80;;;;;;;6.63;70.08;99665.39;1691882;84;25852;-58
2022/02/18 01:05:09;;;;;;;4.87;0.70;;;;;;;6.68;70.10;99671.15;1691344;84;25809;-58
2022/02/18 01:07:36;;;;;;;1.22;0.70;;;;;;;6.68;70.10;99676.50;1691866;84;25805;-58
2022/02/18 01:10:07;;;;;;;2.08;0.93;;;;;;;6.60;69.86;99683.49;1691495;84;25741;-58
2022/02/18 01:12:36;;;;;;;1.50;0.82;;;;;;;6.57;70.10;99689.97;1702575;83;27440;-58
2022/02/18 01:15:06;;;;;;;1.37;0.70;;;;;;;6.48;70.50;99704.14;1703740;84;25816;-58
2022/02/18 01:17:34;;;;;;;0.80;0.80;;;;;;;6.33;71.24;99706.34;1704184;84;25761;-58
2022/02/18 01:20:02;;;;;;;2.10;0.78;;;;;;;6.21;70.98;99704.27;1711760;83;25783;-58
2022/02/18 01:22:29;;;;;;;0.95;0.70;;;;;;;6.15;71.19;99710.14;1716721;83;25747;-58
2022/02/18 01:24:56;;;;;;;3.45;1.00;;;;;;;6.10;71.54;99715.89;1698635;84;27421;-57
2022/02/18 01:27:23;;;;;;;2.75;0.80;;;;;;;6.05;71.42;99711.45;1691675;84;25791;-57
2022/02/18 01:29:51;;;;;;;1.52;0.80;;;;;;;6.03;71.56;99711.56;1691648;84;26272;-58
2022/02/18 01:32:18;;;;;;;1.10;0.60;;;;;;;6.03;71.19;99708.89;1691726;84;25801;-57
2022/02/18 01:34:45;;;;;;;0.85;0.80;;;;;;;6.04;71.57;99719.10;1691612;84;25535;-58
2022/02/18 01:37:14;;;;;;;1.42;0.78;;;;;;;6.03;71.84;99712.06;1699157;84;27564;-58
2022/02/18 01:39:41;;;;;;;3.85;0.90;;;;;;;5.98;72.04;99712.90;1703828;84;25808;-58
2022/02/18 01:42:08;;;;;;;1.87;0.90;;;;;;;5.93;72.30;99715.50;1703999;83;25811;-58
2022/02/18 01:44:44;;;;;;;1.72;0.70;;;;;;;5.90;72.25;99722.92;1703875;83;25804;-59
2022/02/18 01:47:22;;;;;;;0.90;0.70;;;;;;;5.86;72.31;99733.02;1690263;83;25544;-58
2022/02/18 01:49:58;;;;;;;1.35;1.25;;;;;;;5.84;72.43;99738.11;1682303;85;28137;-57
2022/02/18 01:52:32;;;;;;;0.98;0.90;;;;;;;5.81;72.74;99744.56;1655939;85;25881;-58
2022/02/18 01:54:59;;;;;;;1.45;0.80;;;;;;;5.78;72.70;99752.85;1656188;85;25777;-57
2022/02/18 01:57:26;;;;;;;0.90;0.82;;;;;;;5.73;73.18;99754.58;1633136;86;26483;-58
2022/02/18 01:59:53;;;;;;;2.47;1.37;;;;;;;5.68;73.45;99758.61;1656392;86;25834;-58
2022/02/18 02:02:20;;;;;;;1.37;0.50;;;;;;;5.65;73.34;99747.68;1657413;86;27399;-57
2022/02/18 02:04:48;;;;;;;2.17;1.52;;;;;;;5.64;73.28;99752.69;1657373;85;25773;-58
2022/02/18 02:07:17;;;;;;;3.42;0.90;;;;;;;5.58;73.76;99763.85;1657753;84;25769;-58
2022/02/18 02:09:44;;;;;;;0.93;0.82;;;;;;;5.53;73.78;99764.23;1656735;86;25776;-58
2022/02/18 02:12:11;;;;;;;2.72;0.62;;;;;;;5.51;73.77;99760.02;1634326;86;25923;-58
2022/02/18 02:14:40;;;;;;;0.72;0.72;;;;;;;5.48;74.04;99773.13;1657986;85;28323;-57
2022/02/18 02:17:10;;;;;;;2.55;1.02;;;;;;;5.44;74.03;99773.88;1657425;86;25818;-57
2022/02/18 02:19:38;;;;;;;1.47;0.80;;;;;;;5.42;73.60;99781.64;1657396;86;25841;-58
2022/02/18 02:22:06;;;;;;;0.53;0.45;;;;;;;5.43;73.38;99781.51;1656327;86;25791;-57
2022/02/18 02:24:33;;;;;;;0.93;0.60;;;;;;;5.42;73.26;99791.81;1662015;85;25552;-58
2022/02/18 02:27:00;;;;;;;1.60;0.80;;;;;;;5.43;73.10;99803.32;1679162;85;28154;-58
2022/02/18 02:29:27;;;;;;;1.45;0.93;;;;;;;5.42;72.88;99803.82;1678477;85;25841;-58
2022/02/18 02:31:58;;;;;;;1.65;0.98;;;;;;;5.40;72.11;99809.76;1678639;85;25772;-58
2022/02/18 02:34:25;;;;;;;0.75;0.70;;;;;;;5.38;72.00;99805.03;1670564;85;26565;-58
2022/02/18 02:36:52;;;;;;;1.22;0.60;;;;;;;5.38;71.61;99817.03;1657422;86;25818;-58
2022/02/18 02:39:19;;;;;;;1.32;0.55;;;;;;;5.36;71.24;99820.34;1657389;86;27585;-59
2022/02/18 02:41:49;;;;;;;1.02;0.90;;;;;;;5.34;70.82;99823.61;1657174;86;25782;-58
2022/02/18 02:44:17;;;;;;;1.67;0.85;;;;;;;5.27;70.57;99821.92;1657476;86;26178;-58
2022/02/18 02:46:43;;;;;;;1.12;0.50;;;;;;;5.24;70.59;99830.66;1665823;85;25833;-58
2022/02/18 02:49:24;;;;;;;0.80;0.42;;;;;;;5.21;70.36;99837.10;1692370;84;25746;-58
2022/02/18 02:51:52;;;;;;;0.88;0.60;;;;;;;5.19;70.40;99847.03;1697897;84;27562;-59
2022/02/18 02:54:22;;;;;;;0.62;0.55;;;;;;;5.15;70.34;99842.94;1697033;84;25761;-58
2022/02/18 02:56:52;;;;;;;2.35;1.02;;;;;;;5.12;70.31;99852.51;1687951;84;25777;-58
2022/02/18 02:59:20;;;;;;;1.47;0.80;;;;;;;5.09;70.27;99850.08;1697049;84;25742;-59
2022/02/18 03:01:48;;;;;;;1.95;1.27;;;;;;;5.08;70.19;99862.58;1698111;84;25835;-58
2022/02/18 03:04:15;;;;;;;1.20;1.10;;;;;;;5.06;70.18;99861.84;1697999;84;27507;-59
2022/02/18 03:06:42;;;;;;;1.32;0.80;;;;;;;5.06;69.94;99872.50;1697925;84;25726;-59
2022/02/18 03:09:12;;;;;;;5.87;1.00;;;;;;;5.04;69.73;99876.27;1694778;84;25722;-58
2022/02/18 03:12:52;;;;;;;0.72;0.72;;;;;;;5.03;69.70;99871.91;1689598;84;26399;-59
2022/02/18 03:15:18;;;;;;;1.25;0.90;;;;;;;5.00;69.80;99885.00;1698547;83;25755;-58
2022/02/18 03:17:45;;;;;;;1.90;1.00;;;;;;;4.91;69.99;99893.23;1698488;83;27447;-58
2022/02/18 03:20:17;;;;;;;2.77;1.42;;;;;;;4.86;69.81;99893.59;1695671;83;25766;-58
2022/02/18 03:22:45;;;;;;;3.12;1.32;;;;;;;4.84;69.46;99904.02;1698319;84;25803;-58
2022/02/18 03:25:13;;;;;;;1.12;1.02;;;;;;;4.84;69.23;99923.50;1703969;83;26446;-58
2022/02/18 03:27:42;;;;;;;2.02;0.98;;;;;;;4.85;69.07;99923.03;1709381;83;25793;-58
2022/02/18 03:30:11;;;;;;;2.05;1.30;;;;;;;4.86;68.86;99918.91;1692657;83;27593;-58
2022/02/18 03:32:38;;;;;;;2.75;0.80;;;;;;;4.86;68.90;99923.41;1692168;84;25983;-58
2022/02/18 03:35:07;;;;;;;0.60;0.60;;;;;;;4.86;68.80;99926.07;1692339;84;25726;-59
2022/02/18 03:37:38;;;;;;;1.75;1.00;;;;;;;4.85;68.67;99928.37;1692289;84;25830;-59
2022/02/18 03:40:08;;;;;;;1.37;0.80;;;;;;;4.86;68.72;99934.06;1691202;84;25786;-58
2022/02/18 03:42:36;;;;;;;2.12;1.12;;;;;;;4.82;68.83;99936.59;1694262;84;27470;-59
2022/02/18 03:45:05;;;;;;;1.60;0.98;;;;;;;4.79;68.89;99947.02;1695378;84;25686;-58
2022/02/18 03:47:33;;;;;;;1.32;1.00;;;;;;;4.73;68.90;99951.96;1674300;83;25677;-59
2022/02/18 03:50:01;;;;;;;2.87;1.30;;;;;;;4.67;69.11;99954.61;1666753;86;25814;-58
2022/02/18 03:52:28;;;;;;;3.25;1.50;;;;;;;4.63;69.10;99952.67;1666471;86;25739;-58
2022/02/18 03:54:56;;;;;;;5.50;2.55;;;;;;;4.58;69.17;99953.52;1666702;86;27452;-59
2022/02/18 03:57:24;;;;;;;2.60;1.67;;;;;;;4.54;69.06;99952.04;1667412;86;25809;-58
2022/02/18 03:59:52;;;;;;;2.83;1.40;;;;;;;4.51;69.28;99957.63;1641210;87;25807;-58
2022/02/18 04:02:19;;;;;;;1.32;1.20;;;;;;;4.47;69.04;99958.34;1652431;86;25889;-58
2022/02/18 04:04:46;;;;;;;2.00;0.95;;;;;;;4.46;68.92;99965.97;1656205;86;25562;-59
2022/02/18 04:07:24;;;;;;;1.15;0.70;;;;;;;4.45;68.92;99969.59;1655521;84;27670;-58
2022/02/18 04:09:52;;;;;;;2.35;1.80;;;;;;;4.44;68.88;99968.38;1655595;85;25833;-58
2022/02/18 04:12:23;;;;;;;2.22;1.17;;;;;;;4.43;69.00;99984.83;1656192;86;25747;-58
2022/02/18 04:14:52;;;;;;;1.90;1.32;;;;;;;4.45;69.09;99990.89;1667672;85;25838;-58
2022/02/18 04:17:26;;;;;;;2.90;1.30;;;;;;;4.47;69.06;100004.09;1668012;86;25861;-58
2022/02/18 04:19:55;;;;;;;1.82;1.00;;;;;;;4.46;69.07;100002.39;1667450;85;27508;-58
2022/02/18 04:22:24;;;;;;;0.93;0.88;;;;;;;4.40;69.00;100005.02;1667788;85;25809;-58
2022/02/18 04:24:51;;;;;;;2.15;1.02;;;;;;;4.39;68.69;100006.02;1662921;86;25797;-58
2022/02/18 04:27:19;;;;;;;6.00;2.20;;;;;;;4.37;68.58;100019.42;1656283;86;25848;-58
2022/02/18 04:29:46;;;;;;;2.27;1.70;;;;;;;4.36;68.52;100017.72;1655776;85;25805;-58
2022/02/18 04:32:13;;;;;;;2.92;1.90;;;;;;;4.35;68.35;100028.00;1655933;84;27471;-58
2022/02/18 04:34:40;;;;;;;3.35;1.42;;;;;;;4.33;68.21;100029.95;1658627;86;25758;-59
2022/02/18 04:37:07;;;;;;;3.33;1.37;;;;;;;4.32;68.17;100034.05;1667979;86;25784;-58
2022/02/18 04:39:34;;;;;;;2.33;1.32;;;;;;;4.29;68.04;100041.78;1668030;86;26496;-58
2022/02/18 04:42:01;;;;;;;5.12;1.37;;;;;;;4.28;68.07;100048.56;1658387;86;25774;-58
2022/02/18 04:44:28;;;;;;;3.02;1.80;;;;;;;4.28;67.88;100053.89;1655868;84;28195;-59
2022/02/18 04:46:55;;;;;;;2.10;1.20;;;;;;;4.29;67.91;100056.43;1660086;83;25768;-58
2022/02/18 04:49:22;;;;;;;1.72;1.30;;;;;;;4.32;68.03;100061.53;1684798;83;25844;-58
2022/02/18 04:51:49;;;;;;;3.92;2.25;;;;;;;4.35;67.92;100075.94;1691532;84;25862;-58
2022/02/18 04:54:16;;;;;;;5.75;3.52;;;;;;;4.39;67.83;100073.92;1692288;84;25940;-58
2022/02/18 04:56:43;;;;;;;2.52;1.35;;;;;;;4.44;67.83;100073.58;1692237;84;27462;-58
2022/02/18 04:59:12;;;;;;;4.65;2.85;;;;;;;4.53;67.77;100086.19;1692338;84;25702;-58
2022/02/18 05:01:38;;;;;;;3.17;2.00;;;;;;;4.53;67.20;100090.19;1696328;84;25820;-58
2022/02/18 05:04:05;;;;;;;4.25;1.85;;;;;;;4.52;67.19;100092.02;1698052;84;27980;-58
2022/02/18 05:06:31;;;;;;;3.42;1.50;;;;;;;4.53;67.14;100100.84;1698394;84;25753;-58
2022/02/18 05:08:58;;;;;;;3.35;1.42;;;;;;;4.56;67.15;100104.62;1698086;84;27470;-58
2022/02/18 05:11:25;;;;;;;2.33;1.60;;;;;;;4.55;66.79;100106.91;1698075;84;25781;-58
2022/02/18 05:13:52;;;;;;;2.17;1.55;;;;;;;4.51;66.61;100107.63;1693006;84;25686;-59
2022/02/18 05:16:19;;;;;;;3.00;1.40;;;;;;;4.49;66.53;100126.86;1692910;84;26667;-58
2022/02/18 05:18:47;;;;;;;2.50;1.45;;;;;;;4.43;66.44;100123.81;1692319;84;27565;-58
2022/02/18 05:21:17;;;;;;;2.85;1.60;;;;;;;4.38;66.45;100132.98;1692422;84;27471;-58
2022/02/18 05:23:44;;;;;;;6.28;1.37;;;;;;;4.39;66.50;100140.01;1692418;84;25530;-59
2022/02/18 05:26:11;;;;;;;2.83;1.22;;;;;;;4.38;66.52;100143.63;1689112;83;25781;-58
2022/02/18 05:28:37;;;;;;;7.42;1.50;;;;;;;4.43;66.66;100145.95;1698051;84;25817;-58
2022/02/18 05:31:04;;;;;;;2.27;1.17;;;;;;;4.44;66.60;100159.65;1696919;83;25795;-58
2022/02/18 05:33:31;;;;;;;7.05;1.40;;;;;;;4.49;66.60;100165.97;1692353;84;27462;-59
2022/02/18 05:35:58;;;;;;;3.83;1.40;;;;;;;4.56;66.70;100169.88;1692403;84;25543;-59
2022/02/18 05:38:26;;;;;;;4.28;1.10;;;;;;;4.60;66.62;100164.71;1692363;84;25723;-58
2022/02/18 05:40:55;;;;;;;7.65;1.40;;;;;;;4.70;66.64;100178.20;1696974;84;26435;-59
2022/02/18 05:43:22;;;;;;;2.37;1.50;;;;;;;4.75;66.45;100181.86;1698138;83;25845;-58
2022/02/18 05:45:49;;;;;;;1.85;1.17;;;;;;;4.82;66.32;100189.76;1703862;83;27484;-58
2022/02/18 05:48:16;;;;;;;5.40;1.20;;;;;;;4.86;66.10;100187.25;1708475;82;25453;-58
2022/02/18 05:50:42;;;;;;;1.77;1.30;;;;;;;4.92;66.16;100196.61;1707961;84;25713;-58
2022/02/18 05:53:09;;;;;;;5.97;3.20;;;;;;;4.95;65.95;100205.69;1706289;84;25849;-59
2022/02/18 05:55:36;;;;;;;5.00;2.00;;;;;;;4.99;65.89;100216.51;1691582;84;25741;-59
2022/02/18 05:58:03;;;;;;;10.15;3.77;;;;;;;4.99;65.83;100224.50;1691804;84;28347;-59
2022/02/18 06:00:29;;;;;;;3.10;2.05;;;;;;;5.01;65.92;100226.59;1691620;84;25799;-59
2022/02/18 06:02:56;;;;;;;3.27;1.55;;;;;;;4.98;65.83;100228.97;1691577;84;25660;-59
2022/02/18 06:05:23;;;;;;;2.00;1.35;;;;;;;4.98;65.95;100234.30;1697182;84;25831;-58
2022/02/18 06:07:50;;;;;;;1.90;1.37;;;;;;;5.00;65.90;100239.55;1704208;84;25809;-58
2022/02/18 06:10:17;;;;;;;1.60;1.07;;;;;;;5.04;66.10;100245.49;1703979;84;27555;-59
2022/02/18 06:12:43;;;;;;;2.92;1.30;;;;;;;5.08;66.23;100249.62;1703828;83;25824;-58
2022/02/18 06:15:10;;;;;;;2.33;1.07;;;;;;;5.27;66.46;100256.63;1703946;83;25876;-59
2022/02/18 06:17:39;;;;;;;2.52;0.80;;;;;;;5.76;65.68;100257.89;1703985;84;25855;-58
2022/02/18 06:20:09;;;;;;;2.22;1.00;;;;;;;5.82;65.08;100255.23;1705204;83;25856;-59
2022/02/18 06:22:36;;;;;;;3.30;1.30;;;;;;;5.86;64.79;100262.89;1705357;84;27525;-59
2022/02/18 06:25:06;;;;;;;2.27;1.17;;;;;;;5.87;64.53;100267.73;1705396;84;25780;-58
2022/02/18 06:27:33;;;;;;;7.67;1.70;;;;;;;5.84;64.46;100266.62;1705558;83;25728;-58
2022/02/18 06:30:00;;;;;;;6.42;3.12;;;;;;;5.78;64.18;100279.98;1705364;84;25920;-58
2022/02/18 06:32:28;;;;;;;7.58;3.20;;;;;;;5.75;63.93;100281.04;1704754;84;25809;-58
2022/02/18 06:34:55;;;;;;;16.32;4.92;;;;;;;5.72;64.15;100283.97;1704027;83;26929;-59
2022/02/18 06:37:22;;;;;;;11.73;3.30;;;;;;;5.74;64.07;100294.02;1703843;84;25816;-62
2022/02/18 06:39:50;;;;;;;14.07;3.90;;;;;;;5.80;63.76;100299.38;1704028;84;25727;-62
2022/02/18 06:42:17;;;;;;;7.78;3.12;;;;;;;5.88;63.82;100295.63;1703695;84;25784;-62
2022/02/18 06:44:44;;;;;;;12.03;3.40;;;;;;;5.95;63.32;100302.23;1704010;83;25698;-61
2022/02/18 06:47:12;;;;;;;7.55;3.35;;;;;;;5.98;63.27;100309.14;1704121;84;27485;-63
2022/02/18 06:49:41;;;;;;;12.63;4.10;;;;;;;6.03;63.21;100311.49;1698330;84;25866;-62
2022/02/18 06:52:08;;;;;;;7.58;2.65;;;;;;;6.08;62.94;100319.98;1698411;84;25776;-62
2022/02/18 06:54:35;;;;;;;5.90;1.92;;;;;;;6.14;63.11;100316.83;1697932;84;25871;-62
2022/02/18 06:57:03;;;;;;;7.40;2.70;;;;;;;6.23;63.01;100322.80;1692778;84;25826;-62
2022/02/18 06:59:30;;;;;;;5.95;1.65;;;;;;;6.31;62.88;100327.55;1690750;84;27460;-62
2022/02/18 07:01:57;;;;;;;8.98;2.40;;;;;;;6.36;62.73;100321.39;1690405;83;25768;-62
2022/02/18 07:04:25;;;;;;;5.92;1.80;;;;;;;6.46;62.20;100329.98;1690586;84;25726;-63
2022/02/18 07:06:53;;;;;;;5.90;1.92;;;;;;;6.47;61.99;100336.56;1695819;84;25765;-62
2022/02/18 07:09:20;;;;;;;5.58;1.45;;;;;;;6.55;62.12;100335.48;1692700;84;25801;-62
2022/02/18 07:11:47;;;;;;;1.98;1.17;;;;;;;6.67;61.95;100344.84;1685092;84;28193;-62
2022/02/18 07:14:14;;;;;;;4.40;2.00;;;;;;;6.76;61.56;100339.23;1685223;85;25527;-62
2022/02/18 07:16:42;;;;;;;5.87;2.30;;;;;;;6.74;60.99;100349.56;1685093;85;25483;-63
2022/02/18 07:19:12;;;;;;;6.55;1.98;;;;;;;6.70;60.71;100345.45;1686491;84;26437;-63
2022/02/18 07:21:40;;;;;;;6.35;2.25;;;;;;;6.69;60.67;100349.55;1698285;84;25782;-62
2022/02/18 07:24:09;;;;;;;6.10;2.87;;;;;;;6.67;60.57;100359.04;1695814;84;26936;-62
2022/02/18 07:26:37;;;;;;;6.80;2.20;;;;;;;6.66;60.59;100361.34;1670298;85;25741;-62
2022/02/18 07:29:05;;;;;;;9.58;2.47;;;;;;;6.69;60.47;100369.14;1685715;84;25707;-62
2022/02/18 07:31:32;;;;;;;4.95;2.05;;;;;;;6.78;60.74;100373.39;1695130;84;25835;-63
2022/02/18 07:33:59;;;;;;;6.20;2.35;;;;;;;6.91;60.63;100380.78;1698295;84;27323;-63
2022/02/18 07:36:26;;;;;;;4.25;1.95;;;;;;;6.93;59.37;100378.01;1706121;83;27468;-62
2022/02/18 07:38:52;;;;;;;7.72;1.80;;;;;;;6.99;59.91;100382.36;1719239;83;26360;-62
2022/02/18 07:41:19;;;;;;;17.30;6.90;;;;;;;7.03;59.32;100394.53;1720163;82;25525;-62
2022/02/18 07:43:47;;;;;;;8.10;2.47;;;;;;;7.11;59.81;100391.72;1701626;83;25790;-62
2022/02/18 07:46:13;;;;;;;3.22;1.80;;;;;;;7.12;59.29;100394.77;1688395;83;27287;-62
2022/02/18 07:48:40;;;;;;;5.95;1.98;;;;;;;7.16;59.33;100396.23;1683859;84;27517;-62
2022/02/18 07:51:07;;;;;;;9.25;2.10;;;;;;;7.15;58.86;100399.37;1697969;84;25733;-63
2022/02/18 07:53:35;;;;;;;6.20;2.77;;;;;;;7.13;58.85;100401.31;1698106;84;25745;-62
2022/02/18 07:56:04;;;;;;;11.83;2.55;;;;;;;7.03;58.83;100409.23;1698070;84;25790;-62
2022/02/18 07:58:31;;;;;;;3.27;1.45;;;;;;;6.99;59.18;100415.78;1697993;84;25477;-62
2022/02/18 08:00:57;;;;;;;9.93;2.12;;;;;;;6.94;59.05;100414.48;1697034;84;27516;-62
2022/02/18 08:03:26;;;;;;;6.08;2.45;;;;;;;6.91;59.12;100417.38;1687961;82;26516;-62
2022/02/18 08:05:53;;;;;;;6.78;2.98;;;;;;;6.89;59.48;100416.18;1691836;82;25785;-62
2022/02/18 08:08:24;;;;;;;4.25;1.90;;;;;;;6.87;59.06;100416.28;1697107;84;25793;-63
2022/02/18 08:10:49;;;;;;;7.60;2.22;;;;;;;6.83;58.94;100422.86;1697641;84;25734;-62
2022/02/18 08:13:15;;;;;;;6.42;3.27;;;;;;;6.86;59.25;100419.92;1697912;84;27487;-62
2022/02/18 08:15:42;;;;;;;6.53;2.80;;;;;;;6.89;59.08;100418.35;1694545;83;25833;-62
2022/02/18 08:18:09;;;;;;;9.75;2.60;;;;;;;6.95;59.01;100423.70;1698119;84;25796;-62
2022/02/18 08:20:35;;;;;;;13.10;3.15;;;;;;;6.98;58.52;100421.27;1698121;83;26589;-62
2022/02/18 08:23:02;;;;;;;13.72;3.22;;;;;;;6.99;58.63;100418.96;1698025;84;25828;-63
2022/02/18 08:25:29;;;;;;;6.67;2.55;;;;;;;7.06;57.79;100425.52;1692011;83;27384;-63
2022/02/18 08:27:56;;;;;;;8.68;3.95;;;;;;;7.10;57.86;100426.99;1684377;85;25784;-62
2022/02/18 08:30:22;;;;;;;10.40;3.17;;;;;;;7.12;57.41;100423.72;1684803;84;25821;-63
2022/02/18 08:32:49;;;;;;;8.95;4.10;;;;;;;7.22;57.79;100421.14;1684922;84;25785;-63
2022/02/18 08:35:16;;;;;;;16.27;3.85;;;;;;;7.31;57.67;100425.75;1694263;82;26462;-62
2022/02/18 08:37:43;;;;;;;11.00;3.30;;;;;;;7.35;56.53;100432.55;1729765;82;27488;-62
2022/02/18 08:40:11;;;;;;;8.43;2.40;;;;;;;7.45;56.47;100422.44;1728139;82;25813;-62
2022/02/18 08:42:38;;;;;;;10.00;3.22;;;;;;;7.57;56.74;100425.97;1692085;84;25747;-62
2022/02/18 08:45:07;;;;;;;9.18;3.27;;;;;;;7.64;56.59;100434.69;1694483;83;27101;-62
2022/02/18 08:47:34;;;;;;;6.22;2.47;;;;;;;7.68;55.42;100424.58;1699730;84;25902;-62
2022/02/18 08:50:01;;;;;;;49.08;15.28;;;;;;;7.81;55.71;100423.94;1672688;84;27478;-62
2022/02/18 08:52:28;;;;;;;11.80;3.90;;;;;;;7.86;54.78;100432.93;1668393;85;25795;-62
2022/02/18 08:54:55;;;;;;;10.63;3.90;;;;;;;7.90;54.04;100432.19;1662247;84;25777;-62
2022/02/18 08:57:21;;;;;;;5.65;2.15;;;;;;;7.96;53.70;100421.82;1668495;85;26470;-62
2022/02/18 08:59:48;;;;;;;5.37;1.92;;;;;;;8.04;52.90;100432.38;1674012;85;25861;-62
2022/02/18 09:02:15;;;;;;;5.37;1.82;;;;;;;8.02;53.39;100439.69;1657455;86;27501;-62
2022/02/18 09:04:42;;;;;;;6.70;1.85;;;;;;;8.21;52.40;100440.33;1685515;84;25672;-62
2022/02/18 09:07:09;;;;;;;8.18;3.62;;;;;;;8.54;52.85;100455.42;1630054;86;25824;-62
2022/02/18 09:09:35;;;;;;;7.42;2.40;;;;;;;8.87;52.36;100449.97;1667342;85;25797;-62
2022/02/18 09:12:04;;;;;;;7.42;2.62;;;;;;;9.08;50.89;100449.45;1667192;86;25742;-62
2022/02/18 09:14:30;;;;;;;10.58;2.17;;;;;;;9.11;51.27;100450.14;1666765;86;27468;-63
2022/02/18 09:17:02;;;;;;;20.08;6.60;;;;;;;9.12;50.67;100458.55;1671040;84;25741;-62
2022/02/18 09:19:29;;;;;;;12.20;4.12;;;;;;;9.31;50.46;100463.17;1673572;84;25711;-63
2022/02/18 09:21:56;;;;;;;11.38;4.97;;;;;;;9.36;48.91;100466.29;1662730;86;25876;-62
2022/02/18 09:24:22;;;;;;;16.80;4.22;;;;;;;9.27;49.91;100465.28;1658967;85;25823;-62
2022/02/18 09:26:51;;;;;;;16.30;3.83;;;;;;;9.35;49.43;100459.22;1668269;86;27496;-63
2022/02/18 09:29:18;;;;;;;11.78;3.30;;;;;;;9.46;47.97;100466.34;1667571;86;25830;-63
2022/02/18 09:31:45;;;;;;;6.67;2.40;;;;;;;9.26;48.11;100473.45;1660851;86;25748;-62
2022/02/18 09:34:14;;;;;;;8.60;2.58;;;;;;;9.18;49.05;100470.12;1668490;85;25765;-63
2022/02/18 09:36:40;;;;;;;8.35;3.58;;;;;;;8.98;48.69;100469.15;1687676;84;25742;-63
2022/02/18 09:39:07;;;;;;;8.83;2.30;;;;;;;8.78;48.48;100477.11;1667902;85;28321;-63
2022/02/18 09:41:36;;;;;;;6.25;2.10;;;;;;;8.77;49.72;100477.59;1675062;85;25653;-62
2022/02/18 09:44:03;;;;;;;10.70;2.70;;;;;;;9.42;49.53;100481.01;1664356;85;25732;-63
2022/02/18 09:46:30;;;;;;;10.23;3.20;;;;;;;10.21;48.00;100466.72;1663042;85;25775;-63
2022/02/18 09:48:58;;;;;;;6.80;2.83;;;;;;;10.29;47.04;100476.27;1666089;85;25727;-63
2022/02/18 09:51:26;;;;;;;7.17;1.60;;;;;;;10.15;45.63;100485.61;1667094;85;28351;-64
2022/02/18 09:53:58;;;;;;;9.93;2.35;;;;;;;9.91;43.81;100500.77;1666640;85;25749;-64
2022/02/18 09:56:23;;;;;;;5.50;1.82;;;;;;;10.14;44.99;100492.48;1677987;85;25512;-64
2022/02/18 09:58:52;;;;;;;9.28;2.02;;;;;;;10.44;43.61;100487.48;1633010;86;26589;-64
2022/02/18 10:01:20;;;;;;;6.00;2.45;;;;;;;10.96;44.35;100483.09;1656534;86;25772;-64
2022/02/18 10:03:47;;;;;;;2.40;1.20;;;;;;;11.23;43.55;100492.22;1673300;84;27461;-64
2022/02/18 10:06:14;;;;;;;6.97;1.57;;;;;;;11.39;42.05;100486.69;1668234;86;25763;-64
2022/02/18 10:08:51;;;;;;;3.47;1.35;;;;;;;11.82;41.62;100479.78;1676056;84;25786;-63
2022/02/18 10:11:18;;;;;;;4.92;2.08;;;;;;;11.58;41.29;100477.66;1678450;85;28025;-64
2022/02/18 10:13:46;;;;;;;4.42;2.00;;;;;;;11.37;41.80;100481.94;1668263;85;27353;-64
2022/02/18 10:16:18;;;;;;;8.73;1.47;;;;;;;11.11;41.44;100498.77;1663459;84;28190;-64
2022/02/18 10:19:05;;;;;;;2.72;1.55;;;;;;;10.75;41.98;100494.53;1667380;85;25757;-64
2022/02/18 10:21:35;;;;;;;6.53;1.75;;;;;;;10.50;42.36;100498.17;1666972;85;25551;-64
2022/02/18 10:24:12;;;;;;;2.98;1.50;;;;;;;10.27;42.43;100498.41;1666327;85;25831;-64
2022/02/18 10:26:49;;;;;;;5.40;1.92;;;;;;;10.10;42.86;100497.28;1657656;84;25846;-64
2022/02/18 10:29:26;;;;;;;4.55;1.52;;;;;;;9.97;42.87;100493.52;1672865;85;28194;-64
2022/02/18 10:32:16;;;;;;;4.70;1.65;;;;;;;9.91;43.34;100503.46;1668328;85;25717;-64
2022/02/18 10:35:03;;;;;;;2.70;1.60;;;;;;;9.99;43.80;100500.95;1668624;86;25808;-63
2022/02/18 10:37:34;;;;;;;5.50;1.82;;;;;;;10.13;44.44;100509.08;1684319;84;25808;-63
2022/02/18 10:40:14;;;;;;;3.47;1.60;;;;;;;10.60;44.35;100500.36;1678748;84;25706;-63
2022/02/18 10:42:48;;;;;;;3.58;1.30;;;;;;;10.86;42.98;100497.06;1668824;85;27488;-63
2022/02/18 10:45:23;;;;;;;6.80;1.10;;;;;;;10.87;42.96;100500.11;1664818;85;25801;-62
2022/02/18 10:48:17;;;;;;;2.25;1.30;;;;;;;10.82;42.26;100496.16;1685566;85;25752;-63
2022/02/18 10:50:44;;;;;;;7.67;1.37;;;;;;;10.83;40.13;100501.37;1677336;82;25814;-63
2022/02/18 10:53:19;;;;;;;11.83;1.80;;;;;;;11.94;39.87;100500.63;1678394;84;25794;-63
2022/02/18 10:56:00;;;;;;;2.52;1.12;;;;;;;12.84;38.02;100495.73;1685029;83;27867;-64
2022/02/18 10:58:39;;;;;;;2.77;1.25;;;;;;;12.90;37.57;100487.02;1703679;83;25671;-64
2022/02/18 11:01:24;;;;;;;3.75;1.50;;;;;;;12.78;37.76;100497.72;1649719;86;25843;-63
2022/02/18 11:03:55;;;;;;;6.33;1.50;;;;;;;12.95;37.16;100504.09;1679135;83;26185;-63
2022/02/18 11:06:28;;;;;;;3.47;1.50;;;;;;;12.91;36.83;100504.05;1677779;84;25480;-64
2022/02/18 11:09:12;;;;;;;6.12;1.45;;;;;;;13.14;35.63;100512.48;1678695;85;26896;-64
2022/02/18 11:11:44;;;;;;;9.48;1.72;;;;;;;12.94;34.89;100512.68;1678803;85;25806;-64
2022/02/18 11:14:15;;;;;;;5.60;1.77;;;;;;;13.17;35.86;100496.45;1679080;85;25679;-64
2022/02/18 11:16:46;;;;;;;6.00;1.55;;;;;;;13.09;36.68;100518.84;1687471;83;25780;-64
2022/02/18 11:19:13;;;;;;;4.10;1.62;;;;;;;12.93;35.17;100506.09;1696123;83;25892;-64
2022/02/18 11:21:39;;;;;;;3.35;1.20;;;;;;;13.23;34.97;100516.06;1679779;85;28216;-64
2022/02/18 11:24:07;;;;;;;3.52;1.40;;;;;;;13.66;34.46;100514.78;1678666;85;25780;-64
2022/02/18 11:26:34;;;;;;;3.60;1.50;;;;;;;14.65;34.30;100510.44;1678263;85;25726;-63
2022/02/18 11:29:02;;;;;;;8.68;1.92;;;;;;;15.89;33.97;100512.01;1678688;85;26963;-64
2022/02/18 11:31:34;;;;;;;5.50;1.62;;;;;;;16.93;32.93;100509.39;1677938;85;25764;-64
2022/02/18 11:34:21;;;;;;;13.38;2.00;;;;;;;16.81;29.96;100523.41;1678445;85;28310;-63
2022/02/18 11:37:13;;;;;;;5.47;1.27;;;;;;;16.27;31.85;100519.75;1621770;85;25933;-64
2022/02/18 11:40:31;;;;;;;4.22;1.60;;;;;;;17.12;29.84;100517.05;1663801;85;25764;-64
2022/02/18 11:43:27;;;;;;;7.75;1.80;;;;;;;17.49;29.02;100526.16;1677424;85;25828;-63